Glencoe, Maryland
Current Conditions -  °F | °C
As of 10:10 AM on Wednesday 22 Oct 2014 (Local Time) from KDMW Reporting Station
Moderate Rain Moderate Rain  
Wind Chill: 54°   Ceiling: 2500
Heat Index: 54°   Visibility: 10mi
Dew Point: 48°   Wind: 12mph
Humidity: 82%   Direction: 360°N
Pressure: 29.95"   Gusts: 17mph
Location:  39.5472°N, 76.6725°W
Report Text: KDMW 221410Z AUTO 36010G15KT 10SM RA SCT019 BKN025 OVC043 12/09 A2995 RMK AO2 LTG DSNT SE
Loading
Personal Weather Stations






























Interactive Weather Map
Tropical Storm Tracking
New forecast layout! Learn more

10-Day Weather Forecast

Advertisements
Track Severe Weather on mobile